sensor_id;sensor_type;location;lat;lon;timestamp;temperature;humidity
14357;DHT22;7262;48.764;9.166;2024-02-26T00:00:09;7.30;99.90
14357;DHT22;7262;48.764;9.166;2024-02-26T00:02:36;7.30;99.90
14357;DHT22;7262;48.764;9.166;2024-02-26T00:05:04;7.20;99.90
14357;DHT22;7262;48.764;9.166;2024-02-26T00:07:31;7.30;99.90
14357;DHT22;7262;48.764;9.166;2024-02-26T00:09:57;7.30;99.90
14357;DHT22;7262;48.764;9.166;2024-02-26T00:12:26;7.30;99.90
14357;DHT22;7262;48.764;9.166;2024-02-26T00:14:52;7.20;99.90
14357;DHT22;7262;48.764;9.166;2024-02-26T00:17:19;7.20;99.90
14357;DHT22;7262;48.764;9.166;2024-02-26T00:19:46;7.20;99.90
14357;DHT22;7262;48.764;9.166;2024-02-26T00:22:13;7.20;99.90
14357;DHT22;7262;48.764;9.166;2024-02-26T00:24:39;7.20;99.90
14357;DHT22;7262;48.764;9.166;2024-02-26T00:27:06;7.30;99.90
14357;DHT22;7262;48.764;9.166;2024-02-26T00:29:34;7.30;99.90
14357;DHT22;7262;48.764;9.166;2024-02-26T00:32:01;7.30;99.90
14357;DHT22;7262;48.764;9.166;2024-02-26T00:34:28;7.30;99.90
14357;DHT22;7262;48.764;9.166;2024-02-26T00:36:54;7.30;99.90
14357;DHT22;7262;48.764;9.166;2024-02-26T00:39:21;7.30;99.90
14357;DHT22;7262;48.764;9.166;2024-02-26T00:41:48;7.30;99.90
14357;DHT22;7262;48.764;9.166;2024-02-26T00:44:16;7.30;99.90
14357;DHT22;7262;48.764;9.166;2024-02-26T00:46:45;7.30;99.90
14357;DHT22;7262;48.764;9.166;2024-02-26T00:49:12;7.30;99.90
14357;DHT22;7262;48.764;9.166;2024-02-26T00:51:38;7.40;99.90
14357;DHT22;7262;48.764;9.166;2024-02-26T00:54:05;7.40;99.90
14357;DHT22;7262;48.764;9.166;2024-02-26T00:56:32;7.40;99.90
14357;DHT22;7262;48.764;9.166;2024-02-26T00:58:59;7.40;99.90
14357;DHT22;7262;48.764;9.166;2024-02-26T01:01:26;7.40;99.90
14357;DHT22;7262;48.764;9.166;2024-02-26T01:03:55;7.40;99.90
14357;DHT22;7262;48.764;9.166;2024-02-26T01:06:22;7.40;99.90
14357;DHT22;7262;48.764;9.166;2024-02-26T01:50:30;7.40;99.90
14357;DHT22;7262;48.764;9.166;2024-02-26T01:52:57;7.40;99.90
14357;DHT22;7262;48.764;9.166;2024-02-26T01:55:23;7.40;99.90
14357;DHT22;7262;48.764;9.166;2024-02-26T01:57:50;7.40;99.90
14357;DHT22;7262;48.764;9.166;2024-02-26T02:00:18;7.40;99.90
14357;DHT22;7262;48.764;9.166;2024-02-26T02:02:46;7.30;99.90
14357;DHT22;7262;48.764;9.166;2024-02-26T02:05:14;7.40;99.90
14357;DHT22;7262;48.764;9.166;2024-02-26T02:07:43;7.30;99.90
14357;DHT22;7262;48.764;9.166;2024-02-26T02:10:10;7.30;99.90
14357;DHT22;7262;48.764;9.166;2024-02-26T02:12:37;7.30;99.90
14357;DHT22;7262;48.764;9.166;2024-02-26T02:15:05;7.30;99.90
14357;DHT22;7262;48.764;9.166;2024-02-26T02:17:32;7.40;99.90
14357;DHT22;7262;48.764;9.166;2024-02-26T02:19:59;7.40;99.90
14357;DHT22;7262;48.764;9.166;2024-02-26T02:22:27;7.40;99.90
14357;DHT22;7262;48.764;9.166;2024-02-26T02:24:54;7.40;99.90
14357;DHT22;7262;48.764;9.166;2024-02-26T02:27:21;7.50;99.90
14357;DHT22;7262;48.764;9.166;2024-02-26T02:29:48;7.50;99.90
14357;DHT22;7262;48.764;9.166;2024-02-26T03:27:01;7.50;99.90
14357;DHT22;7262;48.764;9.166;2024-02-26T03:29:27;7.50;99.90
14357;DHT22;7262;48.764;9.166;2024-02-26T03:31:54;7.50;99.90
14357;DHT22;7262;48.764;9.166;2024-02-26T03:34:21;7.50;99.90
14357;DHT22;7262;48.764;9.166;2024-02-26T03:36:47;7.50;99.90
14357;DHT22;7262;48.764;9.166;2024-02-26T03:39:14;7.40;99.90
14357;DHT22;7262;48.764;9.166;2024-02-26T03:41:41;7.40;99.90
14357;DHT22;7262;48.764;9.166;2024-02-26T03:44:09;7.50;99.90
14357;DHT22;7262;48.764;9.166;2024-02-26T03:46:36;7.40;99.90
14357;DHT22;7262;48.764;9.166;2024-02-26T03:49:03;7.40;99.90
14357;DHT22;7262;48.764;9.166;2024-02-26T03:51:29;7.40;99.90
14357;DHT22;7262;48.764;9.166;2024-02-26T03:53:56;7.40;99.90
14357;DHT22;7262;48.764;9.166;2024-02-26T03:56:23;7.40;99.90
14357;DHT22;7262;48.764;9.166;2024-02-26T03:58:50;7.40;99.90
14357;DHT22;7262;48.764;9.166;2024-02-26T04:01:19;7.40;99.90
14357;DHT22;7262;48.764;9.166;2024-02-26T04:03:45;7.40;99.90
14357;DHT22;7262;48.764;9.166;2024-02-26T04:06:12;7.40;99.90
14357;DHT22;7262;48.764;9.166;2024-02-26T04:08:39;7.40;99.90
14357;DHT22;7262;48.764;9.166;2024-02-26T04:11:06;7.50;99.90
14357;DHT22;7262;48.764;9.166;2024-02-26T04:13:33;7.50;99.90
14357;DHT22;7262;48.764;9.166;2024-02-26T04:16:00;7.50;99.90
14357;DHT22;7262;48.764;9.166;2024-02-26T04:18:29;7.60;99.90
14357;DHT22;7262;48.764;9.166;2024-02-26T04:20:56;7.60;99.90
14357;DHT22;7262;48.764;9.166;2024-02-26T04:23:23;7.60;99.90
14357;DHT22;7262;48.764;9.166;2024-02-26T04:25:50;7.60;99.90
14357;DHT22;7262;48.764;9.166;2024-02-26T04:28:18;7.70;99.90
14357;DHT22;7262;48.764;9.166;2024-02-26T04:30:46;7.70;99.90
14357;DHT22;7262;48.764;9.166;2024-02-26T04:33:13;7.70;99.90
14357;DHT22;7262;48.764;9.166;2024-02-26T04:35:41;7.80;99.90
14357;DHT22;7262;48.764;9.166;2024-02-26T05:04:03;7.60;99.90
14357;DHT22;7262;48.764;9.166;2024-02-26T05:06:30;7.60;99.90
14357;DHT22;7262;48.764;9.166;2024-02-26T05:08:57;7.50;99.90
14357;DHT22;7262;48.764;9.166;2024-02-26T05:11:24;7.60;99.90
14357;DHT22;7262;48.764;9.166;2024-02-26T05:13:51;7.60;99.90
14357;DHT22;7262;48.764;9.166;2024-02-26T05:16:17;7.50;99.90
14357;DHT22;7262;48.764;9.166;2024-02-26T05:18:46;7.60;99.90
14357;DHT22;7262;48.764;9.166;2024-02-26T05:21:14;7.70;99.90
14357;DHT22;7262;48.764;9.166;2024-02-26T05:23:41;7.70;99.90
14357;DHT22;7262;48.764;9.166;2024-02-26T05:26:09;7.70;99.90
14357;DHT22;7262;48.764;9.166;2024-02-26T05:28:36;7.70;99.90
14357;DHT22;7262;48.764;9.166;2024-02-26T05:31:04;7.60;99.90
14357;DHT22;7262;48.764;9.166;2024-02-26T05:33:31;7.70;99.90
14357;DHT22;7262;48.764;9.166;2024-02-26T05:35:58;7.60;99.90
14357;DHT22;7262;48.764;9.166;2024-02-26T05:38:30;7.70;99.90
14357;DHT22;7262;48.764;9.166;2024-02-26T05:40:57;7.70;99.90
14357;DHT22;7262;48.764;9.166;2024-02-26T05:43:24;7.60;99.90
14357;DHT22;7262;48.764;9.166;2024-02-26T05:45:51;7.60;99.90
14357;DHT22;7262;48.764;9.166;2024-02-26T05:48:18;7.60;99.90
14357;DHT22;7262;48.764;9.166;2024-02-26T05:50:45;7.50;99.90
14357;DHT22;7262;48.764;9.166;2024-02-26T05:53:12;7.50;99.90
14357;DHT22;7262;48.764;9.166;2024-02-26T05:55:40;7.40;99.90
14357;DHT22;7262;48.764;9.166;2024-02-26T05:58:07;7.40;99.90
14357;DHT22;7262;48.764;9.166;2024-02-26T06:00:34;7.30;99.90
14357;DHT22;7262;48.764;9.166;2024-02-26T06:03:01;7.40;99.90
14357;DHT22;7262;48.764;9.166;2024-02-26T06:05:27;7.30;99.90
14357;DHT22;7262;48.764;9.166;2024-02-26T06:07:54;7.20;99.90
14357;DHT22;7262;48.764;9.166;2024-02-26T06:10:21;7.20;99.90
14357;DHT22;7262;48.764;9.166;2024-02-26T06:12:49;7.10;99.90
14357;DHT22;7262;48.764;9.166;2024-02-26T06:15:16;6.90;99.90
14357;DHT22;7262;48.764;9.166;2024-02-26T06:17:43;7.00;99.90
14357;DHT22;7262;48.764;9.166;2024-02-26T06:20:10;7.00;99.90
14357;DHT22;7262;48.764;9.166;2024-02-26T06:22:39;6.80;99.90
14357;DHT22;7262;48.764;9.166;2024-02-26T06:25:06;6.70;99.90
14357;DHT22;7262;48.764;9.166;2024-02-26T06:27:33;6.90;99.90
14357;DHT22;7262;48.764;9.166;2024-02-26T06:30:01;6.90;99.90
14357;DHT22;7262;48.764;9.166;2024-02-26T06:32:28;6.90;99.90
14357;DHT22;7262;48.764;9.166;2024-02-26T06:34:54;7.00;99.90
14357;DHT22;7262;48.764;9.166;2024-02-26T06:37:21;7.00;99.90
14357;DHT22;7262;48.764;9.166;2024-02-26T06:39:48;6.90;99.90
14357;DHT22;7262;48.764;9.166;2024-02-26T06:42:17;6.90;99.90
14357;DHT22;7262;48.764;9.166;2024-02-26T06:44:44;7.00;99.90
14357;DHT22;7262;48.764;9.166;2024-02-26T06:47:12;6.90;99.90
14357;DHT22;7262;48.764;9.166;2024-02-26T06:49:39;6.90;99.90
14357;DHT22;7262;48.764;9.166;2024-02-26T06:52:06;6.80;99.90
14357;DHT22;7262;48.764;9.166;2024-02-26T06:54:33;6.80;99.90
14357;DHT22;7262;48.764;9.166;2024-02-26T06:56:59;6.90;99.90
14357;DHT22;7262;48.764;9.166;2024-02-26T06:59:26;6.90;99.90
14357;DHT22;7262;48.764;9.166;2024-02-26T07:01:54;7.00;99.90
14357;DHT22;7262;48.764;9.166;2024-02-26T07:04:22;7.00;99.90
14357;DHT22;7262;48.764;9.166;2024-02-26T07:06:49;7.00;99.90
14357;DHT22;7262;48.764;9.166;2024-02-26T07:09:16;7.10;99.90
14357;DHT22;7262;48.764;9.166;2024-02-26T07:11:43;7.10;99.90
14357;DHT22;7262;48.764;9.166;2024-02-26T07:14:10;7.20;99.90
14357;DHT22;7262;48.764;9.166;2024-02-26T07:16:37;7.30;99.90
14357;DHT22;7262;48.764;9.166;2024-02-26T07:19:04;7.20;99.90
14357;DHT22;7262;48.764;9.166;2024-02-26T07:21:32;7.30;99.90
14357;DHT22;7262;48.764;9.166;2024-02-26T07:24:02;7.30;99.90
14357;DHT22;7262;48.764;9.166;2024-02-26T07:26:29;7.30;99.90
14357;DHT22;7262;48.764;9.166;2024-02-26T07:28:56;7.40;99.90
14357;DHT22;7262;48.764;9.166;2024-02-26T07:31:23;7.40;99.90
14357;DHT22;7262;48.764;9.166;2024-02-26T07:33:50;7.40;99.90
14357;DHT22;7262;48.764;9.166;2024-02-26T07:36:17;7.50;99.90
14357;DHT22;7262;48.764;9.166;2024-02-26T07:38:45;7.60;99.90
14357;DHT22;7262;48.764;9.166;2024-02-26T07:41:12;7.70;99.90
14357;DHT22;7262;48.764;9.166;2024-02-26T07:43:39;7.70;99.90
14357;DHT22;7262;48.764;9.166;2024-02-26T07:46:10;7.80;99.90
14357;DHT22;7262;48.764;9.166;2024-02-26T07:48:38;7.90;99.90
14357;DHT22;7262;48.764;9.166;2024-02-26T07:51:05;7.90;99.90
14357;DHT22;7262;48.764;9.166;2024-02-26T07:53:35;8.10;99.90
14357;DHT22;7262;48.764;9.166;2024-02-26T07:56:03;8.00;99.90
14357;DHT22;7262;48.764;9.166;2024-02-26T07:58:31;8.20;99.90
14357;DHT22;7262;48.764;9.166;2024-02-26T08:00:58;8.20;99.90
14357;DHT22;7262;48.764;9.166;2024-02-26T08:03:25;8.20;99.90
14357;DHT22;7262;48.764;9.166;2024-02-26T08:05:52;8.30;99.90
14357;DHT22;7262;48.764;9.166;2024-02-26T08:08:19;8.50;99.90
14357;DHT22;7262;48.764;9.166;2024-02-26T08:10:46;8.60;99.90
14357;DHT22;7262;48.764;9.166;2024-02-26T08:13:14;8.80;99.90
14357;DHT22;7262;48.764;9.166;2024-02-26T08:15:41;8.80;99.90
14357;DHT22;7262;48.764;9.166;2024-02-26T08:18:07;8.90;99.90
14357;DHT22;7262;48.764;9.166;2024-02-26T08:20:34;9.00;99.90
14357;DHT22;7262;48.764;9.166;2024-02-26T08:23:01;9.10;99.90
14357;DHT22;7262;48.764;9.166;2024-02-26T08:25:28;9.30;99.90
14357;DHT22;7262;48.764;9.166;2024-02-26T08:27:55;9.20;99.90
14357;DHT22;7262;48.764;9.166;2024-02-26T08:30:23;9.20;99.90
14357;DHT22;7262;48.764;9.166;2024-02-26T08:32:50;9.50;99.90
14357;DHT22;7262;48.764;9.166;2024-02-26T08:35:17;9.50;99.90
14357;DHT22;7262;48.764;9.166;2024-02-26T08:37:44;9.70;99.90
14357;DHT22;7262;48.764;9.166;2024-02-26T08:40:11;9.80;99.90
14357;DHT22;7262;48.764;9.166;2024-02-26T08:42:38;10.00;99.90
14357;DHT22;7262;48.764;9.166;2024-02-26T08:45:06;10.00;99.90
14357;DHT22;7262;48.764;9.166;2024-02-26T08:47:34;9.90;99.90
14357;DHT22;7262;48.764;9.166;2024-02-26T08:50:01;10.10;99.90
14357;DHT22;7262;48.764;9.166;2024-02-26T08:52:28;10.30;99.90
14357;DHT22;7262;48.764;9.166;2024-02-26T08:54:56;10.30;99.90
14357;DHT22;7262;48.764;9.166;2024-02-26T08:57:23;10.10;99.90
14357;DHT22;7262;48.764;9.166;2024-02-26T08:59:52;10.20;99.90
14357;DHT22;7262;48.764;9.166;2024-02-26T09:02:19;10.20;99.90
14357;DHT22;7262;48.764;9.166;2024-02-26T09:04:47;10.20;99.90
14357;DHT22;7262;48.764;9.166;2024-02-26T09:07:16;10.20;99.90
14357;DHT22;7262;48.764;9.166;2024-02-26T09:09:43;10.30;99.90
14357;DHT22;7262;48.764;9.166;2024-02-26T09:12:09;10.30;99.90
14357;DHT22;7262;48.764;9.166;2024-02-26T09:14:36;10.40;99.90
14357;DHT22;7262;48.764;9.166;2024-02-26T09:17:03;10.50;99.90
14357;DHT22;7262;48.764;9.166;2024-02-26T09:19:31;10.50;99.90
14357;DHT22;7262;48.764;9.166;2024-02-26T09:22:03;10.30;99.90
14357;DHT22;7262;48.764;9.166;2024-02-26T09:24:31;10.20;99.90
14357;DHT22;7262;48.764;9.166;2024-02-26T09:27:01;10.20;99.90
14357;DHT22;7262;48.764;9.166;2024-02-26T09:29:29;10.50;99.90
14357;DHT22;7262;48.764;9.166;2024-02-26T09:31:56;10.70;99.90
14357;DHT22;7262;48.764;9.166;2024-02-26T09:34:26;10.90;99.90
14357;DHT22;7262;48.764;9.166;2024-02-26T09:36:56;11.00;99.90
14357;DHT22;7262;48.764;9.166;2024-02-26T09:39:24;10.90;99.90
14357;DHT22;7262;48.764;9.166;2024-02-26T09:41:51;10.80;99.90
14357;DHT22;7262;48.764;9.166;2024-02-26T09:44:18;10.90;99.90
14357;DHT22;7262;48.764;9.166;2024-02-26T09:46:46;10.80;99.90
14357;DHT22;7262;48.764;9.166;2024-02-26T09:49:13;10.70;99.90
14357;DHT22;7262;48.764;9.166;2024-02-26T09:51:41;10.90;99.90
14357;DHT22;7262;48.764;9.166;2024-02-26T09:54:09;11.00;99.90
14357;DHT22;7262;48.764;9.166;2024-02-26T09:56:39;11.00;99.90
14357;DHT22;7262;48.764;9.166;2024-02-26T09:59:10;11.40;99.90
14357;DHT22;7262;48.764;9.166;2024-02-26T10:01:38;11.60;99.90
14357;DHT22;7262;48.764;9.166;2024-02-26T10:04:05;11.90;99.90
14357;DHT22;7262;48.764;9.166;2024-02-26T10:06:35;12.30;99.90
14357;DHT22;7262;48.764;9.166;2024-02-26T10:09:04;12.70;99.90
14357;DHT22;7262;48.764;9.166;2024-02-26T10:11:34;13.20;99.90
14357;DHT22;7262;48.764;9.166;2024-02-26T10:14:03;13.80;99.90
14357;DHT22;7262;48.764;9.166;2024-02-26T10:16:30;13.80;99.90
14357;DHT22;7262;48.764;9.166;2024-02-26T10:18:59;14.00;99.90
14357;DHT22;7262;48.764;9.166;2024-02-26T10:21:25;14.30;99.90
14357;DHT22;7262;48.764;9.166;2024-02-26T10:23:52;14.20;99.90
14357;DHT22;7262;48.764;9.166;2024-02-26T10:26:20;14.10;99.90
14357;DHT22;7262;48.764;9.166;2024-02-26T10:34:00;14.90;99.90
14357;DHT22;7262;48.764;9.166;2024-02-26T10:51:59;14.30;99.90
14357;DHT22;7262;48.764;9.166;2024-02-26T11:02:15;14.10;99.90
14357;DHT22;7262;48.764;9.166;2024-02-26T11:04:42;14.70;99.90
14357;DHT22;7262;48.764;9.166;2024-02-26T11:07:10;14.50;99.90
14357;DHT22;7262;48.764;9.166;2024-02-26T11:09:37;15.00;99.90
14357;DHT22;7262;48.764;9.166;2024-02-26T11:12:09;15.70;99.90
14357;DHT22;7262;48.764;9.166;2024-02-26T11:14:38;15.50;99.90
14357;DHT22;7262;48.764;9.166;2024-02-26T11:17:07;15.50;99.90
14357;DHT22;7262;48.764;9.166;2024-02-26T11:19:35;15.70;99.90
14357;DHT22;7262;48.764;9.166;2024-02-26T11:22:02;16.10;99.90
14357;DHT22;7262;48.764;9.166;2024-02-26T11:24:31;16.50;99.90
14357;DHT22;7262;48.764;9.166;2024-02-26T11:27:01;16.60;99.90
14357;DHT22;7262;48.764;9.166;2024-02-26T11:29:29;15.70;99.90
14357;DHT22;7262;48.764;9.166;2024-02-26T11:31:59;15.60;99.90
14357;DHT22;7262;48.764;9.166;2024-02-26T11:34:27;15.50;99.90
14357;DHT22;7262;48.764;9.166;2024-02-26T11:36:57;15.50;99.90
14357;DHT22;7262;48.764;9.166;2024-02-26T11:39:25;15.60;99.90
14357;DHT22;7262;48.764;9.166;2024-02-26T11:42:06;15.10;99.90
14357;DHT22;7262;48.764;9.166;2024-02-26T11:44:34;14.70;99.90
14357;DHT22;7262;48.764;9.166;2024-02-26T11:47:09;14.20;99.90
14357;DHT22;7262;48.764;9.166;2024-02-26T11:49:36;14.20;99.90
14357;DHT22;7262;48.764;9.166;2024-02-26T11:52:04;14.20;99.90
14357;DHT22;7262;48.764;9.166;2024-02-26T11:57:22;14.20;99.90
14357;DHT22;7262;48.764;9.166;2024-02-26T11:59:49;14.10;99.90
14357;DHT22;7262;48.764;9.166;2024-02-26T12:05:05;14.80;99.90
14357;DHT22;7262;48.764;9.166;2024-02-26T12:07:34;15.10;99.90
14357;DHT22;7262;48.764;9.166;2024-02-26T12:10:20;15.30;99.90
14357;DHT22;7262;48.764;9.166;2024-02-26T12:12:53;15.30;99.90
14357;DHT22;7262;48.764;9.166;2024-02-26T12:15:22;15.20;99.90
14357;DHT22;7262;48.764;9.166;2024-02-26T12:17:49;15.10;99.90
14357;DHT22;7262;48.764;9.166;2024-02-26T12:20:17;14.90;99.90
14357;DHT22;7262;48.764;9.166;2024-02-26T12:22:46;14.60;99.90
14357;DHT22;7262;48.764;9.166;2024-02-26T12:25:13;14.50;99.90
14357;DHT22;7262;48.764;9.166;2024-02-26T12:27:41;14.30;99.90
14357;DHT22;7262;48.764;9.166;2024-02-26T12:30:10;14.20;99.90
14357;DHT22;7262;48.764;9.166;2024-02-26T12:32:38;13.80;99.90
14357;DHT22;7262;48.764;9.166;2024-02-26T12:35:05;13.60;99.90
14357;DHT22;7262;48.764;9.166;2024-02-26T12:37:33;13.50;99.90
14357;DHT22;7262;48.764;9.166;2024-02-26T12:40:03;13.80;99.90
14357;DHT22;7262;48.764;9.166;2024-02-26T12:42:30;14.20;99.90
14357;DHT22;7262;48.764;9.166;2024-02-26T12:44:57;14.50;99.90
14357;DHT22;7262;48.764;9.166;2024-02-26T12:47:26;14.70;99.90
14357;DHT22;7262;48.764;9.166;2024-02-26T12:49:53;15.30;99.90
14357;DHT22;7262;48.764;9.166;2024-02-26T12:52:19;15.60;99.90
14357;DHT22;7262;48.764;9.166;2024-02-26T12:54:49;16.20;99.90
14357;DHT22;7262;48.764;9.166;2024-02-26T12:57:16;16.30;99.90
14357;DHT22;7262;48.764;9.166;2024-02-26T12:59:43;15.80;99.90
14357;DHT22;7262;48.764;9.166;2024-02-26T13:02:10;15.90;99.90
14357;DHT22;7262;48.764;9.166;2024-02-26T13:04:39;16.10;99.90
14357;DHT22;7262;48.764;9.166;2024-02-26T13:07:06;15.90;99.90
14357;DHT22;7262;48.764;9.166;2024-02-26T13:09:34;15.70;99.90
14357;DHT22;7262;48.764;9.166;2024-02-26T13:12:03;15.90;99.90
14357;DHT22;7262;48.764;9.166;2024-02-26T13:14:32;16.00;99.90
14357;DHT22;7262;48.764;9.166;2024-02-26T13:17:00;16.00;99.90
14357;DHT22;7262;48.764;9.166;2024-02-26T13:19:27;15.70;99.90
14357;DHT22;7262;48.764;9.166;2024-02-26T13:21:55;15.40;99.90
14357;DHT22;7262;48.764;9.166;2024-02-26T13:24:25;15.40;99.90
14357;DHT22;7262;48.764;9.166;2024-02-26T13:26:55;15.30;99.90
14357;DHT22;7262;48.764;9.166;2024-02-26T13:29:22;15.10;99.90
14357;DHT22;7262;48.764;9.166;2024-02-26T13:31:55;15.10;99.90
14357;DHT22;7262;48.764;9.166;2024-02-26T13:34:23;15.40;99.90
14357;DHT22;7262;48.764;9.166;2024-02-26T13:36:50;15.70;99.90
14357;DHT22;7262;48.764;9.166;2024-02-26T13:39:22;15.50;99.90
14357;DHT22;7262;48.764;9.166;2024-02-26T13:41:50;15.10;99.90
14357;DHT22;7262;48.764;9.166;2024-02-26T13:44:17;15.30;99.90
14357;DHT22;7262;48.764;9.166;2024-02-26T13:46:45;15.50;99.90
14357;DHT22;7262;48.764;9.166;2024-02-26T13:49:12;15.70;99.90
14357;DHT22;7262;48.764;9.166;2024-02-26T13:51:39;16.20;99.90
14357;DHT22;7262;48.764;9.166;2024-02-26T13:54:06;16.30;99.90
14357;DHT22;7262;48.764;9.166;2024-02-26T13:56:36;16.40;99.90
14357;DHT22;7262;48.764;9.166;2024-02-26T15:09:22;15.20;99.90
14357;DHT22;7262;48.764;9.166;2024-02-26T15:11:49;14.90;99.90
14357;DHT22;7262;48.764;9.166;2024-02-26T15:14:16;14.90;99.90
14357;DHT22;7262;48.764;9.166;2024-02-26T15:16:43;15.00;99.90
14357;DHT22;7262;48.764;9.166;2024-02-26T15:19:10;15.00;99.90
14357;DHT22;7262;48.764;9.166;2024-02-26T15:21:41;15.00;99.90
14357;DHT22;7262;48.764;9.166;2024-02-26T15:24:08;14.80;99.90
14357;DHT22;7262;48.764;9.166;2024-02-26T15:26:38;14.70;99.90
14357;DHT22;7262;48.764;9.166;2024-02-26T15:29:05;14.60;99.90
14357;DHT22;7262;48.764;9.166;2024-02-26T15:31:34;14.50;99.90
14357;DHT22;7262;48.764;9.166;2024-02-26T15:34:01;14.20;99.90
14357;DHT22;7262;48.764;9.166;2024-02-26T15:36:28;14.10;99.90
14357;DHT22;7262;48.764;9.166;2024-02-26T15:38:55;14.20;99.90
14357;DHT22;7262;48.764;9.166;2024-02-26T15:41:22;13.90;99.90
14357;DHT22;7262;48.764;9.166;2024-02-26T15:43:51;13.90;99.90
14357;DHT22;7262;48.764;9.166;2024-02-26T15:46:17;13.90;99.90
14357;DHT22;7262;48.764;9.166;2024-02-26T15:48:44;13.80;99.90
14357;DHT22;7262;48.764;9.166;2024-02-26T15:51:18;13.70;99.90
14357;DHT22;7262;48.764;9.166;2024-02-26T15:53:45;13.70;99.90
14357;DHT22;7262;48.764;9.166;2024-02-26T15:56:12;13.60;99.90
14357;DHT22;7262;48.764;9.166;2024-02-26T15:58:42;13.50;99.90
14357;DHT22;7262;48.764;9.166;2024-02-26T16:01:10;13.60;99.90
14357;DHT22;7262;48.764;9.166;2024-02-26T16:03:37;13.40;99.90
14357;DHT22;7262;48.764;9.166;2024-02-26T16:06:04;13.40;99.90
14357;DHT22;7262;48.764;9.166;2024-02-26T16:08:32;13.30;99.90
14357;DHT22;7262;48.764;9.166;2024-02-26T16:10:59;13.30;99.90
14357;DHT22;7262;48.764;9.166;2024-02-26T16:13:26;13.20;99.90
14357;DHT22;7262;48.764;9.166;2024-02-26T16:15:55;13.30;99.90
14357;DHT22;7262;48.764;9.166;2024-02-26T16:18:25;13.30;99.90
14357;DHT22;7262;48.764;9.166;2024-02-26T16:20:52;13.40;99.90
14357;DHT22;7262;48.764;9.166;2024-02-26T16:23:20;13.20;99.90
14357;DHT22;7262;48.764;9.166;2024-02-26T16:25:50;13.30;99.90
14357;DHT22;7262;48.764;9.166;2024-02-26T16:28:17;13.10;99.90
14357;DHT22;7262;48.764;9.166;2024-02-26T16:30:45;13.00;99.90
14357;DHT22;7262;48.764;9.166;2024-02-26T16:33:12;12.90;99.90
14357;DHT22;7262;48.764;9.166;2024-02-26T16:35:40;12.90;99.90
14357;DHT22;7262;48.764;9.166;2024-02-26T16:38:07;12.80;99.90
14357;DHT22;7262;48.764;9.166;2024-02-26T16:40:33;12.80;99.90
14357;DHT22;7262;48.764;9.166;2024-02-26T16:43:01;12.70;99.90
14357;DHT22;7262;48.764;9.166;2024-02-26T16:45:31;12.70;99.90
14357;DHT22;7262;48.764;9.166;2024-02-26T16:47:58;12.60;99.90
14357;DHT22;7262;48.764;9.166;2024-02-26T16:50:25;12.60;99.90
14357;DHT22;7262;48.764;9.166;2024-02-26T16:52:54;12.50;99.90
14357;DHT22;7262;48.764;9.166;2024-02-26T16:55:21;12.50;99.90
14357;DHT22;7262;48.764;9.166;2024-02-26T16:57:49;12.50;99.90
14357;DHT22;7262;48.764;9.166;2024-02-26T17:00:16;12.50;99.90
14357;DHT22;7262;48.764;9.166;2024-02-26T17:02:44;12.50;99.90
14357;DHT22;7262;48.764;9.166;2024-02-26T17:05:13;12.60;99.90
14357;DHT22;7262;48.764;9.166;2024-02-26T17:07:40;12.30;99.90
14357;DHT22;7262;48.764;9.166;2024-02-26T17:10:11;12.40;99.90
14357;DHT22;7262;48.764;9.166;2024-02-26T17:12:38;12.30;99.90
14357;DHT22;7262;48.764;9.166;2024-02-26T17:15:06;12.20;99.90
14357;DHT22;7262;48.764;9.166;2024-02-26T17:17:35;12.20;99.90
14357;DHT22;7262;48.764;9.166;2024-02-26T17:20:02;12.10;99.90
14357;DHT22;7262;48.764;9.166;2024-02-26T17:22:30;12.20;99.90
14357;DHT22;7262;48.764;9.166;2024-02-26T17:24:58;12.00;99.90
14357;DHT22;7262;48.764;9.166;2024-02-26T17:27:26;12.00;99.90
14357;DHT22;7262;48.764;9.166;2024-02-26T17:29:54;11.90;99.90
14357;DHT22;7262;48.764;9.166;2024-02-26T17:32:21;11.90;99.90
14357;DHT22;7262;48.764;9.166;2024-02-26T17:34:48;11.90;99.90
14357;DHT22;7262;48.764;9.166;2024-02-26T17:37:15;11.80;99.90
14357;DHT22;7262;48.764;9.166;2024-02-26T17:39:42;11.80;99.90
14357;DHT22;7262;48.764;9.166;2024-02-26T17:42:09;11.70;99.90
14357;DHT22;7262;48.764;9.166;2024-02-26T17:44:38;11.70;99.90
14357;DHT22;7262;48.764;9.166;2024-02-26T17:47:05;11.90;99.90
14357;DHT22;7262;48.764;9.166;2024-02-26T17:49:32;11.70;99.90
14357;DHT22;7262;48.764;9.166;2024-02-26T17:52:00;11.60;99.90
14357;DHT22;7262;48.764;9.166;2024-02-26T17:54:29;11.60;99.90
14357;DHT22;7262;48.764;9.166;2024-02-26T17:56:56;11.60;99.90
14357;DHT22;7262;48.764;9.166;2024-02-26T17:59:25;11.60;99.90
14357;DHT22;7262;48.764;9.166;2024-02-26T18:01:55;11.60;99.90
14357;DHT22;7262;48.764;9.166;2024-02-26T18:04:24;11.50;99.90
14357;DHT22;7262;48.764;9.166;2024-02-26T18:06:51;11.50;99.90
14357;DHT22;7262;48.764;9.166;2024-02-26T18:09:18;11.60;99.90
14357;DHT22;7262;48.764;9.166;2024-02-26T18:11:44;11.50;99.90
14357;DHT22;7262;48.764;9.166;2024-02-26T18:14:11;11.50;99.90
14357;DHT22;7262;48.764;9.166;2024-02-26T18:16:38;11.60;99.90
14357;DHT22;7262;48.764;9.166;2024-02-26T18:19:06;11.50;99.90
14357;DHT22;7262;48.764;9.166;2024-02-26T18:21:33;11.50;99.90
14357;DHT22;7262;48.764;9.166;2024-02-26T18:24:00;11.50;99.90
14357;DHT22;7262;48.764;9.166;2024-02-26T18:26:27;11.50;99.90
14357;DHT22;7262;48.764;9.166;2024-02-26T18:28:54;11.40;99.90
14357;DHT22;7262;48.764;9.166;2024-02-26T18:31:22;11.40;99.90
14357;DHT22;7262;48.764;9.166;2024-02-26T18:33:48;11.50;99.90
14357;DHT22;7262;48.764;9.166;2024-02-26T18:36:18;11.40;99.90
14357;DHT22;7262;48.764;9.166;2024-02-26T18:51:46;11.20;99.90
14357;DHT22;7262;48.764;9.166;2024-02-26T18:54:13;11.20;99.90
14357;DHT22;7262;48.764;9.166;2024-02-26T18:56:40;11.10;99.90
14357;DHT22;7262;48.764;9.166;2024-02-26T18:59:06;11.10;99.90
14357;DHT22;7262;48.764;9.166;2024-02-26T19:01:40;11.10;99.90
14357;DHT22;7262;48.764;9.166;2024-02-26T19:04:11;11.00;99.90
14357;DHT22;7262;48.764;9.166;2024-02-26T19:06:38;11.00;99.90
14357;DHT22;7262;48.764;9.166;2024-02-26T19:09:07;11.00;99.90
14357;DHT22;7262;48.764;9.166;2024-02-26T19:11:35;10.90;99.90
14357;DHT22;7262;48.764;9.166;2024-02-26T19:14:02;10.90;99.90
14357;DHT22;7262;48.764;9.166;2024-02-26T19:16:29;10.80;99.90
14357;DHT22;7262;48.764;9.166;2024-02-26T19:18:59;10.80;99.90
14357;DHT22;7262;48.764;9.166;2024-02-26T19:21:28;10.80;99.90
14357;DHT22;7262;48.764;9.166;2024-02-26T19:23:57;10.80;99.90
14357;DHT22;7262;48.764;9.166;2024-02-26T19:26:26;10.90;99.90
14357;DHT22;7262;48.764;9.166;2024-02-26T19:28:53;10.70;99.90
14357;DHT22;7262;48.764;9.166;2024-02-26T19:31:19;10.70;99.90
14357;DHT22;7262;48.764;9.166;2024-02-26T19:33:46;10.80;99.90
14357;DHT22;7262;48.764;9.166;2024-02-26T19:36:13;10.80;99.90
14357;DHT22;7262;48.764;9.166;2024-02-26T19:38:40;10.80;99.90
14357;DHT22;7262;48.764;9.166;2024-02-26T19:41:07;10.80;99.90
14357;DHT22;7262;48.764;9.166;2024-02-26T19:43:36;10.80;99.90
14357;DHT22;7262;48.764;9.166;2024-02-26T19:46:03;10.70;99.90
14357;DHT22;7262;48.764;9.166;2024-02-26T19:48:29;10.70;99.90
14357;DHT22;7262;48.764;9.166;2024-02-26T19:50:57;10.70;99.90
14357;DHT22;7262;48.764;9.166;2024-02-26T19:53:24;10.60;99.90